Pagrindinis puslapis
METAR-TAF:

METAR-TAF

Oro uostai :

Golovin, Aliaska, Jungtinės Amerikos Valstijos

platuma: 64-32-36N, ilguma: 163-02-22W, Aukštis: 8 m

Dabartinis oras

Ataskaita buvo paskelbta 42 minutes, ne 03:56 UTC
Vėjas 5 kt iš Šiaurės
Temperatūra 14°C
Drėgmė 72%
Slėgis 1003 hPa
Matomumas: 16.1 km
Apsiniaukę ne aukštis 6500 ft

METAR: PAGL 160356Z AUTO 35005KT 10SM OVC065 14/09 A2961 RMK AO2 SLP025 T01390094

Laikas: 20:38 (04:38 UTC)


TAF: trūkstamas

Orai ataskaitas ir orų prognozės (METAR, TAF).

turimą stotys yra geltonos ir raudonos taškus žemėlapyje.

Perkelti pele per norėdami pamatyti stoties vardą.

Tada spustelėkite, norėdami matyti oro stebėjimo ir prognozės.

Norėdami pakeisti žemėlapį: spustelėkite ant žalios mygtukų su juodo kryžiaus žemyn,; žalią mygtuką su brūkšneliu, jei norite nutolinti; arba žalių rodyklių gretimoms žemėlapius.


METAR-TAF: